Freeville, New York
Current Conditions -  °F | °C
As of 7:56 AM on Friday 24 Oct 2014 (Local Time) from KITH Reporting Station
Broken Clouds Broken Clouds  
Wind Chill: 40°   Ceiling: 1500
Heat Index: 46°   Visibility: 10mi
Dew Point: 44°   Wind: 12mph
Humidity: 93%   Direction: 320°NW
Pressure: 29.96"   Gusts: NA
Location:  42.51°N, 76.35°W
Report Text: KITH 241156Z 32010KT 10SM SCT007 BKN015 08/07 A2996 RMK AO2 50000 60000 T00770066 10083 20066 SLP149
Loading
Personal Weather Stations






























Interactive Weather Map
Tropical Storm Tracking
New forecast layout! Learn more

10-Day Weather Forecast

Advertisements
Track Severe Weather on mobile